Time;durP1;ratioP1;P1;durP2;ratioP2;P2;SDS_P1;SDS_P2;PMS_P1;PMS_P2;Temp;Humidity;BMP_temperature;BMP_pressure;BME280_temperature;BME280_humidity;BME280_pressure;Samples;Min_cycle;Max_cycle;Signal;HPM_P1;HPM_P2
2020/12/31 00:01:25;;;;;;;97.88;56.75;;;9.30;99.90;;;;;;5052228;28;20017;-76
2020/12/31 00:03:52;;;;;;;86.53;51.13;;;9.30;99.90;;;;;;5052078;28;20032;-76
2020/12/31 00:06:17;;;;;;;53.15;36.60;;;9.30;99.90;;;;;;5034076;28;20439;-76
2020/12/31 00:08:44;;;;;;;59.00;39.60;;;9.30;99.90;;;;;;5051800;28;20029;-76
2020/12/31 00:11:10;;;;;;;82.18;50.80;;;9.30;99.90;;;;;;5051738;28;20379;-76
2020/12/31 00:13:37;;;;;;;68.10;41.92;;;9.30;99.90;;;;;;5051804;28;20098;-75
2020/12/31 00:16:03;;;;;;;69.70;41.10;;;9.30;99.90;;;;;;5051780;28;20033;-75
2020/12/31 00:18:29;;;;;;;62.40;38.40;;;9.30;99.90;;;;;;5054512;28;20036;-75
2020/12/31 00:20:55;;;;;;;73.32;42.58;;;9.30;99.90;;;;;;5060353;28;20020;-75
2020/12/31 00:23:21;;;;;;;71.15;41.35;;;9.30;99.90;;;;;;5061240;28;20116;-75
2020/12/31 00:25:49;;;;;;;53.10;33.78;;;9.30;99.90;;;;;;5040663;28;20033;-75
2020/12/31 00:28:16;;;;;;;62.05;36.00;;;9.30;99.90;;;;;;5051027;28;20503;-75
2020/12/31 00:30:42;;;;;;;55.92;31.73;;;9.30;99.90;;;;;;5051332;28;20057;-75
2020/12/31 00:33:11;;;;;;;59.10;33.70;;;9.30;99.90;;;;;;5051506;28;20043;-75
2020/12/31 00:35:37;;;;;;;67.82;36.88;;;9.30;99.90;;;;;;5051305;28;20029;-75
2020/12/31 00:38:03;;;;;;;54.75;32.88;;;9.30;99.90;;;;;;5051275;28;20086;-75
2020/12/31 00:40:29;;;;;;;48.42;31.63;;;9.30;99.90;;;;;;5051276;28;20025;-75
2020/12/31 00:42:55;;;;;;;66.97;35.25;;;9.40;99.90;;;;;;5051474;28;20716;-75
2020/12/31 00:45:20;;;;;;;55.00;33.38;;;9.30;99.90;;;;;;5051194;28;20033;-74
2020/12/31 00:47:46;;;;;;;61.55;34.45;;;9.40;99.90;;;;;;5051281;28;20180;-74
2020/12/31 00:50:12;;;;;;;87.13;34.78;;;9.40;99.90;;;;;;5051118;28;20115;-76
2020/12/31 00:52:38;;;;;;;64.72;38.92;;;9.40;99.90;;;;;;5051046;28;20079;-75
2020/12/31 00:55:04;;;;;;;73.20;44.30;;;9.40;99.90;;;;;;5051084;28;20100;-75
2020/12/31 00:57:30;;;;;;;85.82;51.25;;;9.40;99.90;;;;;;5051023;28;20111;-75
2020/12/31 00:59:56;;;;;;;87.18;54.83;;;9.40;99.90;;;;;;5050793;28;20654;-75
2020/12/31 01:02:22;;;;;;;88.43;57.22;;;9.40;99.90;;;;;;5051036;28;20023;-75
2020/12/31 01:04:47;;;;;;;90.75;59.47;;;9.40;99.90;;;;;;5051026;28;20530;-75
2020/12/31 01:07:17;;;;;;;85.35;59.47;;;9.40;99.90;;;;;;5050836;28;20083;-76
2020/12/31 01:09:43;;;;;;;93.68;61.88;;;9.40;99.90;;;;;;5050922;28;20067;-75
2020/12/31 01:12:11;;;;;;;105.00;68.18;;;9.40;99.90;;;;;;5050875;28;20029;-75
2020/12/31 01:14:36;;;;;;;114.10;71.20;;;9.40;99.90;;;;;;5050892;28;20032;-75
2020/12/31 01:17:02;;;;;;;119.57;75.32;;;9.40;99.90;;;;;;5050660;28;20029;-75
2020/12/31 01:19:28;;;;;;;141.68;83.95;;;9.40;99.90;;;;;;5050633;28;20494;-75
2020/12/31 01:21:54;;;;;;;145.02;83.25;;;9.30;99.90;;;;;;5050544;28;20013;-75
2020/12/31 01:24:20;;;;;;;145.90;81.57;;;9.30;99.90;;;;;;5050785;28;20087;-76
2020/12/31 01:26:46;;;;;;;152.25;82.10;;;9.40;99.90;;;;;;5050639;28;20027;-76
2020/12/31 01:29:12;;;;;;;144.35;86.68;;;9.40;99.90;;;;;;5050418;28;20500;-76
2020/12/31 01:31:38;;;;;;;121.22;72.88;;;9.30;99.90;;;;;;5050711;28;20825;-76
2020/12/31 01:34:06;;;;;;;122.30;75.13;;;9.40;99.90;;;;;;5050790;28;20075;-76
2020/12/31 01:36:33;;;;;;;163.40;82.25;;;9.40;99.90;;;;;;5050703;28;20025;-76
2020/12/31 01:38:59;;;;;;;132.70;75.70;;;9.30;99.90;;;;;;5050674;28;20021;-76
2020/12/31 01:41:26;;;;;;;130.80;71.60;;;9.30;99.90;;;;;;5052957;28;20024;-76
2020/12/31 01:44:08;;;;;;;132.95;75.95;;;9.30;99.90;;;;;;5054822;28;20032;-76
2020/12/31 01:46:36;;;;;;;135.20;78.57;;;9.30;99.90;;;;;;5054732;28;20017;-76
2020/12/31 01:49:03;;;;;;;126.63;74.63;;;9.30;99.90;;;;;;5054575;28;20025;-76
2020/12/31 01:51:30;;;;;;;151.20;68.53;;;9.30;99.90;;;;;;5036573;28;20479;-76
2020/12/31 01:53:58;;;;;;;124.30;68.25;;;9.30;99.90;;;;;;5054490;28;20106;-75
2020/12/31 01:56:32;;;;;;;111.05;67.22;;;9.30;99.90;;;;;;5054413;28;20037;-76
2020/12/31 01:58:59;;;;;;;111.35;67.63;;;9.30;99.90;;;;;;5054219;28;20111;-75
2020/12/31 02:01:25;;;;;;;120.88;72.72;;;9.30;99.90;;;;;;5054325;28;20101;-75
2020/12/31 02:03:53;;;;;;;115.20;73.10;;;9.30;99.90;;;;;;5054091;28;20024;-76
2020/12/31 02:06:21;;;;;;;119.47;71.43;;;9.20;99.90;;;;;;5054095;28;20025;-75
2020/12/31 02:08:48;;;;;;;111.95;69.60;;;9.20;99.90;;;;;;5054279;28;20537;-75
2020/12/31 02:11:15;;;;;;;116.90;71.22;;;9.20;99.90;;;;;;5054138;28;20017;-75
2020/12/31 02:13:42;;;;;;;113.38;72.13;;;9.20;99.90;;;;;;5054109;28;20053;-75
2020/12/31 02:16:15;;;;;;;93.53;60.83;;;9.20;99.90;;;;;;5053935;28;20029;-75
2020/12/31 02:18:54;;;;;;;103.03;65.85;;;9.20;99.90;;;;;;5053863;28;20029;-75
2020/12/31 02:21:27;;;;;;;118.43;73.35;;;9.10;99.90;;;;;;5053939;28;20326;-76
2020/12/31 02:23:53;;;;;;;97.97;59.63;;;9.20;99.90;;;;;;5053922;28;20092;-76
2020/12/31 02:26:24;;;;;;;87.03;57.08;;;9.10;99.90;;;;;;5053801;28;20017;-76
2020/12/31 02:28:50;;;;;;;;;;;9.10;99.90;;;;;;5053995;28;20124;-76
2020/12/31 02:31:16;;;;;;;72.22;48.28;;;9.00;99.90;;;;;;5053984;28;20006;-76
2020/12/31 02:33:47;;;;;;;83.93;54.03;;;9.10;99.90;;;;;;5053796;28;20033;-76
2020/12/31 02:36:17;;;;;;;84.70;56.53;;;9.00;99.90;;;;;;5053733;28;20387;-76
2020/12/31 02:38:44;;;;;;;73.53;47.33;;;9.00;99.90;;;;;;5035721;28;20107;-75
2020/12/31 02:41:10;;;;;;;67.90;45.70;;;9.00;99.90;;;;;;5053760;28;20033;-76
2020/12/31 02:43:37;;;;;;;60.08;41.75;;;9.00;99.90;;;;;;5053550;28;20021;-76
2020/12/31 02:46:04;;;;;;;54.95;40.08;;;9.00;99.90;;;;;;5053515;28;20036;-76
2020/12/31 02:48:30;;;;;;;57.92;39.90;;;9.00;99.90;;;;;;5053420;28;20487;-76
2020/12/31 02:50:56;;;;;;;57.05;42.08;;;9.00;99.90;;;;;;5053226;28;20025;-76
2020/12/31 02:53:22;;;;;;;63.33;44.58;;;9.00;99.90;;;;;;5053350;28;20025;-76
2020/12/31 02:55:47;;;;;;;60.67;43.08;;;9.00;99.90;;;;;;5053286;28;20475;-76
2020/12/31 02:58:13;;;;;;;72.55;48.30;;;9.00;99.90;;;;;;5053301;28;20487;-76
2020/12/31 03:00:39;;;;;;;73.35;48.15;;;8.90;99.90;;;;;;5053160;28;20036;-76
2020/12/31 03:03:05;;;;;;;64.97;47.03;;;8.90;99.90;;;;;;5053042;28;20029;-75
2020/12/31 03:05:31;;;;;;;73.07;48.00;;;8.90;99.90;;;;;;5053127;28;20025;-75
2020/12/31 03:07:57;;;;;;;68.85;47.80;;;8.90;99.90;;;;;;5053232;28;20033;-76
2020/12/31 03:10:23;;;;;;;75.55;48.45;;;8.90;99.90;;;;;;5052982;28;20029;-75
2020/12/31 03:12:49;;;;;;;94.28;57.60;;;8.90;99.90;;;;;;5053001;28;20033;-76
2020/12/31 03:15:18;;;;;;;80.53;49.33;;;9.00;99.90;;;;;;5052960;28;20037;-76
2020/12/31 03:17:44;;;;;;;82.67;50.90;;;8.90;99.90;;;;;;5053115;28;20792;-76
2020/12/31 03:20:10;;;;;;;95.32;55.30;;;8.90;99.90;;;;;;5052707;28;20017;-76
2020/12/31 03:22:36;;;;;;;72.57;49.28;;;8.90;99.90;;;;;;5052805;28;20025;-76
2020/12/31 03:25:03;;;;;;;63.40;45.15;;;8.90;99.90;;;;;;5052906;28;20018;-76
2020/12/31 03:27:28;;;;;;;66.60;47.67;;;8.80;99.90;;;;;;5052833;28;20021;-76
2020/12/31 03:29:54;;;;;;;69.05;47.22;;;8.90;99.90;;;;;;5052675;28;20381;-76
2020/12/31 03:32:20;;;;;;;68.30;46.10;;;8.80;99.90;;;;;;5052659;28;20040;-76
2020/12/31 03:34:46;;;;;;;77.63;50.33;;;8.90;99.90;;;;;;5052912;28;20036;-76
2020/12/31 03:37:12;;;;;;;83.85;54.33;;;8.90;99.90;;;;;;5052762;28;20029;-76
2020/12/31 03:39:38;;;;;;;81.72;52.22;;;8.90;99.90;;;;;;5052409;28;20036;-76
2020/12/31 03:42:05;;;;;;;75.15;50.03;;;8.90;99.90;;;;;;5052637;28;20419;-76
2020/12/31 03:44:31;;;;;;;77.85;52.80;;;8.80;99.90;;;;;;5052562;28;20028;-76
2020/12/31 03:46:57;;;;;;;80.85;53.15;;;8.80;99.90;;;;;;5052467;28;20075;-76
2020/12/31 03:49:23;;;;;;;69.18;49.75;;;8.80;99.90;;;;;;5052263;28;20029;-76
2020/12/31 03:51:48;;;;;;;66.70;45.88;;;8.80;99.90;;;;;;5052278;28;20365;-76
2020/12/31 03:54:15;;;;;;;67.38;46.47;;;8.80;99.90;;;;;;5052225;28;20043;-75
2020/12/31 03:56:40;;;;;;;68.93;46.20;;;8.80;99.90;;;;;;5052219;28;20025;-76
2020/12/31 03:59:06;;;;;;;72.22;50.17;;;8.80;99.90;;;;;;5051923;28;20074;-75
2020/12/31 04:01:33;;;;;;;77.78;51.95;;;8.80;99.90;;;;;;5052083;28;20384;-76
2020/12/31 04:04:00;;;;;;;69.07;47.72;;;8.70;99.90;;;;;;5051238;28;20464;-75
2020/12/31 04:06:26;;;;;;;76.70;50.80;;;8.70;99.90;;;;;;5051979;28;20021;-75
2020/12/31 04:08:52;;;;;;;77.20;52.10;;;8.70;99.90;;;;;;5051892;28;20025;-75
2020/12/31 04:11:18;;;;;;;85.60;54.63;;;8.70;99.90;;;;;;5033962;28;20039;-76
2020/12/31 04:13:45;;;;;;;99.30;62.15;;;8.70;99.90;;;;;;5051822;28;20171;-75
2020/12/31 04:16:11;;;;;;;94.75;59.78;;;8.60;99.90;;;;;;5051838;28;20039;-76
2020/12/31 04:18:37;;;;;;;102.13;64.28;;;8.60;99.90;;;;;;5051503;28;20028;-76
2020/12/31 04:21:04;;;;;;;132.10;63.97;;;8.60;99.90;;;;;;5051882;28;20021;-76
2020/12/31 04:23:30;;;;;;;122.10;67.82;;;8.60;99.90;;;;;;5051790;28;20040;-76
2020/12/31 04:25:55;;;;;;;159.15;79.25;;;8.60;99.90;;;;;;5051637;28;20434;-76
2020/12/31 04:28:22;;;;;;;112.00;65.28;;;8.60;99.90;;;;;;5051693;28;20025;-77
2020/12/31 04:30:49;;;;;;;117.60;58.38;;;8.60;99.90;;;;;;5051722;28;20191;-76
2020/12/31 04:33:16;;;;;;;112.68;61.60;;;8.60;99.90;;;;;;5051582;28;20044;-76
2020/12/31 04:35:42;;;;;;;97.25;56.70;;;8.60;99.90;;;;;;5051456;28;20040;-76
2020/12/31 04:38:08;;;;;;;91.50;54.03;;;8.60;99.90;;;;;;5051958;28;20637;-76
2020/12/31 04:40:34;;;;;;;76.32;48.00;;;8.60;99.90;;;;;;5051853;28;20036;-76
2020/12/31 04:43:01;;;;;;;66.82;45.38;;;8.60;99.90;;;;;;5051540;28;20025;-76
2020/12/31 04:45:29;;;;;;;73.80;47.03;;;8.60;99.90;;;;;;5051606;28;20025;-77
2020/12/31 04:48:06;;;;;;;73.35;46.60;;;8.60;99.90;;;;;;5051726;28;20025;-76
2020/12/31 04:50:34;;;;;;;87.63;53.08;;;8.60;99.90;;;;;;5051401;28;20028;-76
2020/12/31 04:53:04;;;;;;;86.00;55.20;;;8.60;99.90;;;;;;5051408;28;20033;-76
2020/12/31 04:55:32;;;;;;;;;;;8.60;99.90;;;;;;5052153;28;20035;-77
2020/12/31 04:57:58;;;;;;;84.97;54.35;;;8.70;99.90;;;;;;5051383;28;20374;-76
2020/12/31 05:00:24;;;;;;;86.00;53.75;;;8.60;99.90;;;;;;5051219;28;20033;-77
2020/12/31 05:02:54;;;;;;;90.28;51.75;;;8.60;99.90;;;;;;5051219;28;20029;-77
2020/12/31 05:05:20;;;;;;;86.10;52.47;;;8.60;99.90;;;;;;5051415;28;20032;-77
2020/12/31 05:07:50;;;;;;;82.35;52.30;;;8.60;99.90;;;;;;5051338;28;20246;-77
2020/12/31 05:10:16;;;;;;;73.32;46.30;;;8.60;99.90;;;;;;5051366;28;20029;-77
2020/12/31 05:12:42;;;;;;;69.65;43.90;;;8.70;99.90;;;;;;5051467;28;20037;-77
2020/12/31 05:15:08;;;;;;;70.22;44.10;;;8.70;99.90;;;;;;5051369;28;20025;-77
2020/12/31 05:17:34;;;;;;;67.18;43.53;;;8.60;99.90;;;;;;5051216;28;20052;-77
2020/12/31 05:20:13;;;;;;;84.43;49.17;;;8.70;99.90;;;;;;5051261;28;20028;-77
2020/12/31 05:22:39;;;;;;;70.90;44.70;;;8.70;99.90;;;;;;5051577;28;20029;-77
2020/12/31 05:25:05;;;;;;;68.22;43.88;;;8.60;99.90;;;;;;5051350;28;20019;-77
2020/12/31 05:27:31;;;;;;;73.40;49.78;;;8.70;99.90;;;;;;5051237;28;20017;-77
2020/12/31 05:30:02;;;;;;;85.35;51.65;;;8.60;99.90;;;;;;5050920;28;20064;-77
2020/12/31 05:32:31;;;;;;;80.55;50.15;;;8.70;99.90;;;;;;5033497;28;20055;-77
2020/12/31 05:34:57;;;;;;;85.70;52.45;;;8.70;99.90;;;;;;5051268;28;20531;-77
2020/12/31 05:37:25;;;;;;;78.57;48.72;;;8.70;99.90;;;;;;5051156;28;20052;-77
2020/12/31 05:39:57;;;;;;;73.22;47.17;;;8.70;99.90;;;;;;5051025;28;20051;-77
2020/12/31 05:42:24;;;;;;;79.32;52.70;;;8.70;99.90;;;;;;5051233;28;20104;-77
2020/12/31 05:45:11;;;;;;;82.60;51.25;;;8.70;99.90;;;;;;5051098;28;20531;-77
2020/12/31 05:47:52;;;;;;;85.65;50.28;;;8.70;99.90;;;;;;5050933;28;20029;-77
2020/12/31 05:50:22;;;;;;;68.90;45.50;;;8.70;99.90;;;;;;5051015;28;20025;-77
2020/12/31 05:52:49;;;;;;;73.85;45.92;;;8.60;99.90;;;;;;5050874;28;20083;-77
2020/12/31 05:55:17;;;;;;;70.22;43.45;;;8.60;99.90;;;;;;5050847;28;20380;-77
2020/12/31 05:57:48;;;;;;;64.55;42.50;;;8.70;99.90;;;;;;5050770;28;20075;-77
2020/12/31 06:00:23;;;;;;;110.03;49.10;;;8.70;99.90;;;;;;5050755;28;20122;-77
2020/12/31 06:02:51;;;;;;;75.75;46.17;;;8.70;99.90;;;;;;5050834;28;20804;-77
2020/12/31 06:05:18;;;;;;;87.53;51.08;;;8.70;99.90;;;;;;5032819;28;20025;-77
2020/12/31 06:07:47;;;;;;;79.80;51.13;;;8.70;99.90;;;;;;5050969;28;20029;-76
2020/12/31 06:10:18;;;;;;;94.15;50.95;;;8.70;99.90;;;;;;5050737;28;20043;-77
2020/12/31 06:12:47;;;;;;;94.05;48.05;;;8.70;99.90;;;;;;5050359;28;20483;-76
2020/12/31 06:15:39;;;;;;;70.63;44.72;;;8.70;99.90;;;;;;5032542;28;20036;-76
2020/12/31 06:18:06;;;;;;;70.25;44.33;;;8.70;99.90;;;;;;5042254;28;20558;-76
2020/12/31 06:20:39;;;;;;;66.63;42.97;;;8.70;99.90;;;;;;5050409;28;20152;-76
2020/12/31 06:23:09;;;;;;;66.90;45.08;;;8.70;99.90;;;;;;5050322;28;20022;-76
2020/12/31 06:25:36;;;;;;;60.33;40.30;;;8.70;99.90;;;;;;5050517;28;20017;-76
2020/12/31 06:28:20;;;;;;;58.58;37.47;;;8.70;99.90;;;;;;5053515;28;20021;-76
2020/12/31 06:30:53;;;;;;;64.25;41.47;;;8.70;99.90;;;;;;5053922;28;20111;-76
2020/12/31 06:33:31;;;;;;;62.30;39.58;;;8.70;99.90;;;;;;5053856;28;20378;-76
2020/12/31 06:36:02;;;;;;;68.20;43.35;;;8.70;99.90;;;;;;5053909;28;20033;-76
2020/12/31 06:38:45;;;;;;;77.95;47.70;;;8.70;99.90;;;;;;5035923;28;20025;-76
2020/12/31 06:41:30;;;;;;;81.25;46.90;;;8.70;99.90;;;;;;5053945;28;20078;-76
2020/12/31 06:44:13;;;;;;;106.07;61.92;;;8.70;99.90;;;;;;5053684;28;20067;-76
2020/12/31 06:46:49;;;;;;;100.68;60.17;;;8.70;99.90;;;;;;5053555;28;20021;-76
2020/12/31 06:49:16;;;;;;;111.38;60.72;;;8.60;99.90;;;;;;5053701;28;20047;-76
2020/12/31 06:51:42;;;;;;;120.53;67.28;;;8.70;99.90;;;;;;5053663;28;20025;-76
2020/12/31 06:54:08;;;;;;;129.75;74.13;;;8.60;99.90;;;;;;5053520;28;20021;-76
2020/12/31 06:56:51;;;;;;;124.25;72.15;;;8.60;99.90;;;;;;5053495;28;20033;-76
2020/12/31 06:59:34;;;;;;;137.57;73.93;;;8.60;99.90;;;;;;5053624;28;20384;-77
2020/12/31 07:02:20;;;;;;;125.18;69.78;;;8.60;99.90;;;;;;5053732;28;20101;-77
2020/12/31 07:04:46;;;;;;;159.15;83.53;;;8.60;99.90;;;;;;5053945;28;20836;-77
2020/12/31 07:07:18;;;;;;;159.63;90.38;;;8.60;99.90;;;;;;5053656;28;20032;-77
2020/12/31 07:09:50;;;;;;;195.77;105.45;;;8.60;99.90;;;;;;5035407;28;20543;-76
2020/12/31 07:12:33;;;;;;;183.45;87.32;;;8.70;99.90;;;;;;5053368;28;20064;-76
2020/12/31 07:15:00;;;;;;;176.30;83.40;;;8.60;99.90;;;;;;5053242;28;20021;-76
2020/12/31 07:17:35;;;;;;;168.32;83.75;;;8.60;99.90;;;;;;5053173;28;20176;-77
2020/12/31 07:20:03;;;;;;;244.57;94.95;;;8.60;99.90;;;;;;5053119;28;20025;-76
2020/12/31 07:22:29;;;;;;;181.85;88.80;;;8.70;99.90;;;;;;5035377;28;20025;-76
2020/12/31 07:25:07;;;;;;;191.50;101.25;;;8.70;99.90;;;;;;5052924;28;20025;-76
2020/12/31 07:27:41;;;;;;;246.50;138.05;;;8.70;99.90;;;;;;5034884;28;20039;-76
2020/12/31 07:30:07;;;;;;;183.88;96.32;;;8.70;99.90;;;;;;5052363;28;20202;-76
2020/12/31 07:32:48;;;;;;;203.43;106.57;;;8.70;99.90;;;;;;5052686;28;20515;-76
2020/12/31 07:35:25;;;;;;;226.23;117.93;;;8.70;99.90;;;;;;5052881;28;20025;-76
2020/12/31 07:38:15;;;;;;;201.40;99.53;;;8.70;99.90;;;;;;5052566;28;20472;-76
2020/12/31 07:40:48;;;;;;;211.40;109.13;;;8.80;99.90;;;;;;5044985;28;20041;-76
2020/12/31 07:43:18;;;;;;;213.10;104.65;;;8.80;99.90;;;;;;5052466;28;20495;-76
2020/12/31 07:45:47;;;;;;;178.55;91.47;;;8.80;99.90;;;;;;5052653;28;20086;-76
2020/12/31 07:48:14;;;;;;;188.13;95.55;;;8.80;99.90;;;;;;5034468;28;20040;-76
2020/12/31 07:50:42;;;;;;;195.40;92.25;;;8.80;99.90;;;;;;5052464;28;20056;-77
2020/12/31 07:53:11;;;;;;;170.13;85.22;;;8.70;99.90;;;;;;5052603;28;20032;-76
2020/12/31 07:55:38;;;;;;;160.93;77.65;;;8.80;99.90;;;;;;5034534;28;20025;-77
2020/12/31 07:58:08;;;;;;;168.40;83.07;;;8.80;99.90;;;;;;5052365;28;20021;-76
2020/12/31 08:00:34;;;;;;;229.82;124.68;;;8.80;99.90;;;;;;5052387;28;20034;-76
2020/12/31 08:03:00;;;;;;;263.13;139.02;;;8.80;99.90;;;;;;5052472;28;20033;-76
2020/12/31 08:05:27;;;;;;;327.75;175.82;;;8.80;99.90;;;;;;5034406;28;20040;-76
2020/12/31 08:07:54;;;;;;;322.80;152.32;;;8.80;99.90;;;;;;5052098;28;20017;-76
2020/12/31 08:10:20;;;;;;;301.42;145.63;;;8.90;99.90;;;;;;5052102;28;20523;-76
2020/12/31 08:12:58;;;;;;;294.63;142.90;;;8.80;99.90;;;;;;5052005;28;20118;-76
2020/12/31 08:15:25;;;;;;;291.75;144.00;;;8.80;99.90;;;;;;5052009;28;20108;-76
2020/12/31 08:17:56;;;;;;;233.82;109.55;;;8.80;99.90;;;;;;5052135;28;20029;-76
2020/12/31 08:20:28;;;;;;;181.55;92.38;;;8.80;99.90;;;;;;5034208;28;20972;-76
2020/12/31 08:23:01;;;;;;;169.68;86.40;;;8.90;99.90;;;;;;5052042;28;20392;-76
2020/12/31 08:25:38;;;;;;;191.38;97.40;;;8.80;99.90;;;;;;5052042;28;20042;-77
2020/12/31 08:28:07;;;;;;;185.13;96.45;;;8.80;99.90;;;;;;5051977;28;20696;-77
2020/12/31 08:30:35;;;;;;;178.93;96.13;;;8.80;99.90;;;;;;5051854;28;20504;-76
2020/12/31 08:33:02;;;;;;;188.93;98.93;;;8.80;99.90;;;;;;5052029;28;20029;-77
2020/12/31 08:35:42;;;;;;;145.00;71.82;;;8.90;99.90;;;;;;5052576;28;20091;-77
2020/12/31 08:38:18;;;;;;;154.38;79.22;;;9.00;99.90;;;;;;5052196;28;20044;-77
2020/12/31 08:40:49;;;;;;;210.52;106.80;;;9.10;99.90;;;;;;5052206;28;20372;-77
2020/12/31 08:43:31;;;;;;;179.65;86.20;;;9.20;99.90;;;;;;5052137;28;20063;-76
2020/12/31 08:45:58;;;;;;;189.70;84.60;;;9.10;99.90;;;;;;5051644;28;20025;-76
2020/12/31 08:48:25;;;;;;;188.40;82.03;;;9.20;99.90;;;;;;5051553;28;20036;-77
2020/12/31 08:51:08;;;;;;;186.07;87.65;;;9.20;99.90;;;;;;5051289;28;20033;-76
2020/12/31 08:53:51;;;;;;;157.35;77.53;;;9.30;99.90;;;;;;5051622;28;20029;-77
2020/12/31 08:56:18;;;;;;;181.10;96.63;;;9.30;99.90;;;;;;5051438;28;20028;-77
2020/12/31 08:58:44;;;;;;;158.85;90.78;;;9.20;99.90;;;;;;5051325;28;20025;-77
2020/12/31 09:01:41;;;;;;;150.05;84.63;;;9.20;99.90;;;;;;5051329;28;20430;-76
2020/12/31 09:04:11;;;;;;;141.43;77.13;;;9.20;99.90;;;;;;5049328;28;20446;-77
2020/12/31 09:06:43;;;;;;;160.73;83.60;;;9.20;99.90;;;;;;5061259;28;20017;-77
2020/12/31 09:09:26;;;;;;;162.15;84.03;;;9.20;99.90;;;;;;5061259;28;20759;-77
2020/12/31 09:12:04;;;;;;;148.00;80.57;;;9.20;99.90;;;;;;5061224;28;20021;-77
2020/12/31 09:14:35;;;;;;;150.32;83.95;;;9.10;99.90;;;;;;5059044;28;20085;-77
2020/12/31 09:17:20;;;;;;;159.60;87.93;;;9.20;99.90;;;;;;5066920;28;20020;-77
2020/12/31 09:19:53;;;;;;;146.50;82.72;;;9.20;99.90;;;;;;5060756;28;20030;-76
2020/12/31 09:22:20;;;;;;;153.48;86.43;;;9.20;99.90;;;;;;5060927;28;20757;-75
2020/12/31 09:24:46;;;;;;;177.15;99.15;;;9.20;99.90;;;;;;5060320;28;20047;-76
2020/12/31 09:27:20;;;;;;;177.93;96.25;;;9.10;99.90;;;;;;5059024;28;20025;-76
2020/12/31 09:29:46;;;;;;;178.68;98.63;;;9.10;99.90;;;;;;5057106;28;20136;-77
2020/12/31 09:32:12;;;;;;;176.23;96.13;;;9.10;99.90;;;;;;5051178;28;20111;-77
2020/12/31 09:34:38;;;;;;;186.10;101.35;;;9.00;99.90;;;;;;5051225;28;20078;-77
2020/12/31 09:37:04;;;;;;;191.10;99.13;;;9.00;99.90;;;;;;5051061;28;20496;-77
2020/12/31 09:39:29;;;;;;;168.68;88.82;;;9.00;99.90;;;;;;5050920;28;20040;-76
2020/12/31 09:41:55;;;;;;;151.25;79.13;;;9.00;99.90;;;;;;5050934;28;20029;-76
2020/12/31 09:44:21;;;;;;;152.88;71.55;;;9.00;99.90;;;;;;5050964;28;20025;-76
2020/12/31 09:46:49;;;;;;;169.07;82.68;;;8.90;99.90;;;;;;5052371;28;20578;-76
2020/12/31 09:49:15;;;;;;;167.20;86.95;;;8.90;99.90;;;;;;5057938;28;20040;-76
2020/12/31 09:51:40;;;;;;;138.10;76.00;;;9.00;99.90;;;;;;5050723;28;20025;-76
2020/12/31 09:54:06;;;;;;;136.50;74.28;;;9.00;99.90;;;;;;5050683;28;20045;-76
2020/12/31 09:56:32;;;;;;;121.78;67.75;;;9.00;99.90;;;;;;5050573;28;20540;-76
2020/12/31 09:58:58;;;;;;;112.43;66.20;;;9.00;99.90;;;;;;5050668;28;20037;-76
2020/12/31 10:01:25;;;;;;;136.32;78.53;;;9.10;99.90;;;;;;5051338;28;20075;-75
2020/12/31 10:03:51;;;;;;;107.85;64.68;;;9.10;99.90;;;;;;5054371;28;20025;-76
2020/12/31 10:06:17;;;;;;;95.13;55.75;;;9.10;99.90;;;;;;5054325;28;20104;-76
2020/12/31 10:08:43;;;;;;;84.88;54.60;;;9.20;99.90;;;;;;5054131;28;20033;-75
2020/12/31 10:11:09;;;;;;;79.00;47.28;;;9.20;99.90;;;;;;5054297;28;20029;-76
2020/12/31 10:13:36;;;;;;;66.40;40.17;;;9.20;99.90;;;;;;5054046;28;20462;-76
2020/12/31 10:16:03;;;;;;;60.30;40.45;;;9.20;99.90;;;;;;5036144;28;20029;-76
2020/12/31 10:18:29;;;;;;;61.42;39.30;;;9.20;99.90;;;;;;5054058;28;20024;-76
2020/12/31 10:20:55;;;;;;;64.68;42.53;;;9.30;99.90;;;;;;5054078;28;20025;-76
2020/12/31 10:23:21;;;;;;;60.35;41.17;;;9.30;99.90;;;;;;5053845;28;20434;-76
2020/12/31 10:25:48;;;;;;;60.13;40.28;;;9.40;99.90;;;;;;5054027;28;20033;-76
2020/12/31 10:28:13;;;;;;;61.58;39.25;;;9.40;99.90;;;;;;5053987;28;20074;-76
2020/12/31 10:30:39;;;;;;;51.33;34.28;;;9.30;99.90;;;;;;5053671;28;20044;-75
2020/12/31 10:33:05;;;;;;;48.22;33.55;;;9.40;99.90;;;;;;5053650;28;20025;-76
2020/12/31 10:35:31;;;;;;;43.42;30.77;;;9.30;99.90;;;;;;5053727;28;20029;-75
2020/12/31 10:37:57;;;;;;;44.45;30.70;;;9.20;99.90;;;;;;5053782;28;20029;-76
2020/12/31 10:40:22;;;;;;;38.65;26.63;;;9.20;99.90;;;;;;5053700;28;20021;-75
2020/12/31 10:42:48;;;;;;;48.65;32.75;;;9.10;99.90;;;;;;5053618;28;20159;-75
2020/12/31 10:45:14;;;;;;;56.65;37.80;;;9.10;99.90;;;;;;5053614;28;20081;-76
2020/12/31 10:47:40;;;;;;;48.75;33.45;;;9.10;99.90;;;;;;5054093;28;20471;-75
2020/12/31 10:50:06;;;;;;;43.30;31.15;;;9.20;99.90;;;;;;5053398;28;20040;-76
2020/12/31 10:52:31;;;;;;;47.45;33.67;;;9.20;99.90;;;;;;5053465;28;20502;-76
2020/12/31 10:54:57;;;;;;;40.90;29.08;;;9.20;99.90;;;;;;5053180;28;20082;-76
2020/12/31 10:57:23;;;;;;;60.25;46.42;;;9.10;99.90;;;;;;5053314;28;20120;-75
2020/12/31 10:59:49;;;;;;;54.40;41.35;;;9.10;99.90;;;;;;5053142;28;20036;-76
2020/12/31 11:02:15;;;;;;;49.85;35.33;;;9.10;99.90;;;;;;5053267;28;20021;-76
2020/12/31 11:04:41;;;;;;;43.95;32.03;;;9.10;99.90;;;;;;5053229;28;20028;-75
2020/12/31 11:07:07;;;;;;;51.00;37.25;;;9.10;99.90;;;;;;5053145;28;20021;-76
2020/12/31 11:09:32;;;;;;;62.92;36.15;;;9.20;99.90;;;;;;5053039;28;20484;-76
2020/12/31 11:11:58;;;;;;;55.05;37.75;;;9.20;99.90;;;;;;5052740;28;20033;-76
2020/12/31 11:14:24;;;;;;;45.63;33.35;;;9.20;99.90;;;;;;5052881;28;20025;-76
2020/12/31 11:16:50;;;;;;;47.63;33.47;;;9.20;99.90;;;;;;5035022;28;20021;-76
2020/12/31 11:19:16;;;;;;;40.20;28.13;;;9.20;99.90;;;;;;5052776;28;20025;-75
2020/12/31 11:21:43;;;;;;;35.65;28.08;;;9.20;99.90;;;;;;5050579;28;20029;-75
2020/12/31 11:24:09;;;;;;;40.00;28.48;;;9.20;99.90;;;;;;5051615;28;20111;-75
2020/12/31 11:26:35;;;;;;;37.05;27.38;;;9.20;99.90;;;;;;5052859;28;20162;-76
2020/12/31 11:29:01;;;;;;;35.42;27.05;;;9.20;99.90;;;;;;5059172;28;20183;-75
2020/12/31 11:31:28;;;;;;;42.45;31.05;;;9.20;99.90;;;;;;5062978;28;20029;-75
2020/12/31 11:33:55;;;;;;;58.45;40.05;;;9.20;99.90;;;;;;5059862;28;20017;-75
2020/12/31 11:36:22;;;;;;;50.67;33.78;;;9.10;99.90;;;;;;5067337;28;20391;-75
2020/12/31 11:38:50;;;;;;;42.30;32.92;;;9.20;99.90;;;;;;5052234;28;20031;-75
2020/12/31 11:41:17;;;;;;;34.13;26.02;;;9.20;99.90;;;;;;5066229;28;20781;-76
2020/12/31 11:43:43;;;;;;;38.47;29.70;;;9.10;99.90;;;;;;5066228;28;20028;-75
2020/12/31 11:46:09;;;;;;;31.10;24.65;;;9.10;99.90;;;;;;5064032;28;20384;-76
2020/12/31 11:48:35;;;;;;;34.45;28.38;;;9.10;99.90;;;;;;5056105;28;20029;-75
2020/12/31 11:51:02;;;;;;;50.47;30.52;;;9.10;99.90;;;;;;5052275;28;20025;-75
2020/12/31 11:53:28;;;;;;;47.05;34.72;;;9.10;99.90;;;;;;5052162;28;20033;-75
2020/12/31 11:55:55;;;;;;;38.95;29.58;;;9.20;99.90;;;;;;5042426;28;20043;-75
2020/12/31 11:58:21;;;;;;;44.22;29.65;;;9.20;99.90;;;;;;5065003;28;20069;-75
2020/12/31 12:00:49;;;;;;;33.03;25.75;;;9.20;99.90;;;;;;5068366;28;20121;-75
2020/12/31 12:03:15;;;;;;;36.80;28.23;;;9.20;99.90;;;;;;5054268;28;20032;-75
2020/12/31 12:05:40;;;;;;;41.78;32.00;;;9.20;99.90;;;;;;5071971;28;20371;-74
2020/12/31 12:08:07;;;;;;;25.40;20.45;;;9.20;99.90;;;;;;5071959;28;20368;-75
2020/12/31 12:10:33;;;;;;;27.35;21.92;;;9.10;99.90;;;;;;5071902;28;20067;-75
2020/12/31 12:12:59;;;;;;;26.00;20.50;;;9.10;99.90;;;;;;5053552;28;20100;-74
2020/12/31 12:15:25;;;;;;;25.05;20.05;;;9.10;99.90;;;;;;5053486;28;20029;-75
2020/12/31 12:17:51;;;;;;;29.48;22.10;;;9.10;99.90;;;;;;5071168;28;20376;-75
2020/12/31 12:20:18;;;;;;;30.45;23.00;;;9.10;99.90;;;;;;5071578;28;20467;-74
2020/12/31 12:22:43;;;;;;;39.58;29.15;;;9.10;99.90;;;;;;5071685;28;20032;-74
2020/12/31 12:25:10;;;;;;;31.88;22.05;;;9.10;99.90;;;;;;5070688;28;20376;-74
2020/12/31 12:27:37;;;;;;;33.33;22.60;;;9.10;99.90;;;;;;5070734;28;20044;-75
2020/12/31 12:30:09;;;;;;;22.08;17.75;;;9.10;99.90;;;;;;5070878;28;20056;-74
2020/12/31 12:32:35;;;;;;;26.23;20.70;;;9.20;99.90;;;;;;5070970;28;20021;-74
2020/12/31 12:35:01;;;;;;;24.08;16.77;;;9.10;99.90;;;;;;5070746;28;20024;-75
2020/12/31 12:37:27;;;;;;;20.48;16.88;;;9.10;99.90;;;;;;5070968;28;20031;-74
2020/12/31 12:39:53;;;;;;;26.67;19.75;;;9.10;99.90;;;;;;5071169;28;20032;-74